»·PEaware :: DAL236 KDFW-CYVR

DAL236 :: KDFW-CYVR

FLIGHT INFORMATION

Flight Status: Arrived
Operator:
Delta Air Lines
More flights by this operator :: More flights under this callsign
Pilot: Kenny J. (11300)
Aircraft: BOEING 737-300
(B733)
More flights by this aircraft type
Origin: KDFW Dallas-Ft Worth Intl
United States
Destination: CYVR Vancouver Intl
Canada
More flights between these airports :: More routes between these airports
Route: LOWGN7 ROLLS J20 HGO DCT DVV DCT LAR DCT BOY DCT HIA DCT MLP Q142 METOW GRIZZ5
File this flight plan on PilotEdge
Remarks:
Altitude:
(Current/Filed)
34,000ft
Speed:
(Current/Filed)
300kts
Departed: 14-Oct-16 03:58 AM
Arrived: 14-Oct-16 08:37 AM
Distance/Time
Traveled:
1521nm/4:39
Distance/Time
To Go:
Arrived

Flight Plot

Page will automatically refresh every two minutes.

Flight plan parsing failed; only flown route is shown


Map Options




Map Legend


Flown Route
Filed Route
Departure Airport
Arrival Airport
Navaid (VOR, NDB)
Fix

Horizontal Profiles

Position Reports

Time Latitude Longitude Heading Altitude Ground
Speed
14-Oct-16 03:22 32.887480 -97.038198 334 613ft 0kts
14-Oct-16 03:23 32.887480 -97.038198 334 613ft 0kts
14-Oct-16 03:24 32.887480 -97.038198 334 613ft 0kts
14-Oct-16 03:25 32.887480 -97.038198 334 613ft 0kts
14-Oct-16 03:26 32.887480 -97.038198 334 613ft 0kts
14-Oct-16 03:27 32.887480 -97.038198 334 613ft 0kts
14-Oct-16 03:28 32.887480 -97.038198 334 613ft 0kts
14-Oct-16 03:29 32.887480 -97.038198 334 613ft 0kts
14-Oct-16 03:30 32.887480 -97.038198 334 613ft 0kts
14-Oct-16 03:31 32.887480 -97.038198 334 613ft 0kts
14-Oct-16 03:32 32.887480 -97.038198 334 613ft 0kts
14-Oct-16 03:33 32.887480 -97.038198 334 613ft 0kts
14-Oct-16 03:34 32.887480 -97.038198 334 613ft 0kts
14-Oct-16 03:35 32.887480 -97.038198 334 613ft 0kts
14-Oct-16 03:37 32.887480 -97.038198 334 613ft 0kts
14-Oct-16 03:38 32.887480 -97.038198 334 613ft 0kts
14-Oct-16 03:39 32.887480 -97.038198 334 613ft 0kts
14-Oct-16 03:40 32.887480 -97.038198 334 613ft 0kts
14-Oct-16 03:41 32.887480 -97.038198 334 613ft 0kts
14-Oct-16 03:42 32.887480 -97.038198 334 613ft 0kts
14-Oct-16 03:43 32.887110 -97.037969 318 613ft 0kts
14-Oct-16 03:44 32.887117 -97.037552 232 613ft 0kts
14-Oct-16 03:45 32.887117 -97.037552 232 613ft 0kts
14-Oct-16 03:46 32.887117 -97.037552 232 613ft 0kts
14-Oct-16 03:47 32.886951 -97.037372 83 613ft 4kts
14-Oct-16 03:48 32.886033 -97.037121 271 613ft 14kts
14-Oct-16 03:49 32.886050 -97.042694 271 613ft 19kts
14-Oct-16 03:50 32.886066 -97.049311 264 613ft 7kts
14-Oct-16 03:51 32.885113 -97.049000 177 613ft 14kts
14-Oct-16 03:52 32.879738 -97.049855 259 613ft 18kts
14-Oct-16 03:53 32.880312 -97.050931 355 613ft 2kts
14-Oct-16 03:54 32.907738 -97.050571 2 1030ft 176kts
14-Oct-16 03:55 32.962818 -97.052422 355 2999ft 228kts
14-Oct-16 03:56 33.029886 -97.053934 355 5591ft 254kts
14-Oct-16 03:57 33.098781 -97.067986 334 8255ft 262kts
14-Oct-16 03:58 33.159189 -97.099067 334 10247ft 285kts
14-Oct-16 03:59 33.240220 -97.140520 335 11514ft 343kts
14-Oct-16 04:00 33.329256 -97.185899 334 13883ft 357kts
14-Oct-16 04:01 33.420633 -97.233001 334 16154ft 365kts
14-Oct-16 04:02 33.518917 -97.243527 1 18115ft 382kts
14-Oct-16 04:03 33.625794 -97.232500 1 19953ft 393kts
14-Oct-16 04:04 33.735075 -97.220842 1 21625ft 404kts
14-Oct-16 04:05 33.846779 -97.208872 1 23397ft 407kts
14-Oct-16 04:06 33.959559 -97.196775 1 24685ft 419kts
14-Oct-16 04:07 34.075593 -97.184283 0 25855ft 431kts
14-Oct-16 04:08 34.184371 -97.172560 359 26830ft 442kts
14-Oct-16 04:09 34.273062 -97.244020 294 27771ft 409kts
14-Oct-16 04:10 34.337461 -97.354932 307 29370ft 405kts
14-Oct-16 04:11 34.406894 -97.458442 307 31127ft 387kts
14-Oct-16 04:12 34.472989 -97.556911 307 32209ft 381kts
14-Oct-16 04:13 34.538016 -97.654039 307 32170ft 400kts
14-Oct-16 04:14 34.606608 -97.755887 307 32240ft 411kts
14-Oct-16 04:15 34.676615 -97.860980 308 32203ft 398kts
14-Oct-16 04:16 34.745325 -97.964480 309 32196ft 401kts
14-Oct-16 04:17 34.814522 -98.069041 310 32213ft 396kts
14-Oct-16 04:18 34.883010 -98.171725 311 32187ft 394kts
14-Oct-16 04:18 34.939820 -98.257715 311 32211ft 398kts
14-Oct-16 04:20 35.018949 -98.378270 311 32192ft 392kts
14-Oct-16 04:20 35.075409 -98.464546 311 32207ft 393kts
14-Oct-16 04:21 35.136859 -98.558699 311 32214ft 394kts
14-Oct-16 04:22 35.200311 -98.656179 311 32190ft 393kts
14-Oct-16 04:23 35.265809 -98.756201 311 32200ft 393kts
14-Oct-16 04:24 35.332954 -98.859896 311 32202ft 394kts
14-Oct-16 04:25 35.400519 -98.964609 311 32204ft 394kts
14-Oct-16 04:26 35.467643 -99.068955 311 32210ft 394kts
14-Oct-16 04:27 35.534904 -99.173827 311 32209ft 394kts
14-Oct-16 04:28 35.602011 -99.278778 311 32186ft 394kts
14-Oct-16 04:29 35.669099 -99.384016 311 32194ft 396kts
14-Oct-16 04:30 35.737816 -99.488032 318 32190ft 392kts
14-Oct-16 04:31 35.816955 -99.578981 320 32195ft 394kts
14-Oct-16 04:32 35.893281 -99.663980 320 32149ft 393kts
14-Oct-16 04:33 35.971629 -99.750803 320 32145ft 393kts
14-Oct-16 04:34 36.051960 -99.840742 320 32148ft 395kts
14-Oct-16 04:35 36.128714 -99.926948 320 32148ft 395kts
14-Oct-16 04:36 36.209090 -100.017478 320 32145ft 394kts
14-Oct-16 04:37 36.289578 -100.108397 320 32144ft 396kts
14-Oct-16 04:38 36.369982 -100.199489 320 32146ft 395kts
14-Oct-16 04:39 36.450577 -100.291066 319 32129ft 396kts
14-Oct-16 04:41 36.530755 -100.382434 319 32127ft 396kts
14-Oct-16 04:42 36.611276 -100.474467 319 32128ft 396kts
14-Oct-16 04:43 36.691707 -100.566669 319 32127ft 396kts
14-Oct-16 04:44 36.768920 -100.655439 319 32115ft 396kts
14-Oct-16 04:45 36.848208 -100.746060 319 32100ft 397kts
14-Oct-16 04:46 36.928476 -100.838847 319 32100ft 397kts
14-Oct-16 04:47 37.008454 -100.931615 319 32100ft 397kts
14-Oct-16 04:48 37.084530 -101.029909 313 32101ft 398kts
14-Oct-16 04:49 37.151793 -101.127955 313 32101ft 398kts
14-Oct-16 04:50 37.223273 -101.232317 313 32090ft 398kts
14-Oct-16 04:51 37.294795 -101.337057 313 32092ft 400kts
14-Oct-16 04:52 37.366762 -101.442796 313 32091ft 399kts
14-Oct-16 04:53 37.438341 -101.548301 313 32091ft 399kts
14-Oct-16 04:54 37.508409 -101.651773 312 32073ft 399kts
14-Oct-16 04:55 37.576690 -101.751950 312 32073ft 399kts
14-Oct-16 04:56 37.647687 -101.857527 312 32072ft 399kts
14-Oct-16 04:57 37.718763 -101.963624 312 32073ft 399kts
14-Oct-16 04:58 37.789727 -102.069902 312 32072ft 401kts
14-Oct-16 04:59 37.860620 -102.176428 312 32072ft 400kts
14-Oct-16 05:00 37.931396 -102.283122 312 32071ft 400kts
14-Oct-16 05:01 38.002186 -102.390190 312 32062ft 399kts
14-Oct-16 05:02 38.072903 -102.497500 312 32063ft 399kts
14-Oct-16 05:03 38.139112 -102.598302 312 32065ft 399kts
14-Oct-16 05:04 38.199900 -102.690591 312 32062ft 399kts
14-Oct-16 05:05 38.271067 -102.795779 312 32063ft 397kts
14-Oct-16 05:06 38.342223 -102.901827 312 32064ft 398kts
14-Oct-16 05:07 38.413869 -103.009010 312 32062ft 398kts
14-Oct-16 05:08 38.484341 -103.114782 312 32062ft 398kts
14-Oct-16 05:09 38.555236 -103.221551 312 32080ft 398kts
14-Oct-16 05:10 38.626261 -103.328873 312 32079ft 396kts
14-Oct-16 05:11 38.696611 -103.435523 312 32100ft 397kts
14-Oct-16 05:12 38.767037 -103.542653 312 32096ft 397kts
14-Oct-16 05:13 38.841666 -103.644411 326 32102ft 394kts
14-Oct-16 05:14 38.921619 -103.715278 325 32104ft 395kts
14-Oct-16 05:15 39.010099 -103.796309 325 32100ft 396kts
14-Oct-16 05:16 39.098861 -103.878045 325 32100ft 396kts
14-Oct-16 05:17 39.179082 -103.952144 325 32102ft 396kts
14-Oct-16 05:18 39.267832 -104.034370 324 32100ft 396kts
14-Oct-16 05:19 39.356777 -104.117040 324 32100ft 396kts
14-Oct-16 05:20 39.444254 -104.197395 324 33069ft 388kts
14-Oct-16 05:20 39.516727 -104.265191 324 33788ft 388kts
14-Oct-16 05:22 39.617995 -104.360489 324 34338ft 389kts
14-Oct-16 05:22 39.689501 -104.427998 324 34314ft 386kts
14-Oct-16 05:24 39.790025 -104.523202 323 34320ft 387kts
14-Oct-16 05:24 39.861860 -104.591452 323 34318ft 387kts
14-Oct-16 05:25 39.946089 -104.664526 328 34087ft 389kts
14-Oct-16 05:26 40.035477 -104.731153 329 34050ft 389kts
14-Oct-16 05:27 40.117976 -104.792672 328 34042ft 392kts
14-Oct-16 05:28 40.207492 -104.859620 328 34045ft 391kts
14-Oct-16 05:29 40.300517 -104.929412 327 34044ft 389kts
14-Oct-16 05:30 40.393587 -104.999466 327 34046ft 390kts
14-Oct-16 05:31 40.486689 -105.069766 327 34045ft 389kts
14-Oct-16 05:32 40.579709 -105.140235 327 34045ft 389kts
14-Oct-16 05:33 40.672577 -105.210814 327 34045ft 389kts
14-Oct-16 05:34 40.765120 -105.281371 326 34047ft 388kts
14-Oct-16 05:35 40.857973 -105.352410 326 34048ft 390kts
14-Oct-16 05:36 40.950598 -105.423495 326 34112ft 389kts
14-Oct-16 05:37 41.043240 -105.494828 326 34108ft 389kts
14-Oct-16 05:38 41.126912 -105.559456 326 34112ft 389kts
14-Oct-16 05:39 41.218506 -105.630429 326 34109ft 389kts
14-Oct-16 05:40 41.302053 -105.694706 325 34110ft 388kts
14-Oct-16 05:41 41.385863 -105.780360 313 34098ft 384kts
14-Oct-16 05:42 41.465131 -105.874490 315 34112ft 386kts
14-Oct-16 05:43 41.545100 -105.967799 315 34108ft 386kts
14-Oct-16 05:44 41.625211 -106.061532 315 34052ft 385kts
14-Oct-16 05:46 41.705052 -106.155276 315 34055ft 386kts
14-Oct-16 05:47 41.784974 -106.249430 315 34056ft 385kts
14-Oct-16 05:48 41.864668 -106.343651 314 34055ft 385kts
14-Oct-16 05:49 41.943903 -106.437646 314 34054ft 385kts
14-Oct-16 05:50 42.023360 -106.532234 314 34054ft 385kts
14-Oct-16 05:51 42.101225 -106.625246 314 34054ft 385kts
14-Oct-16 05:52 42.167794 -106.704288 314 34056ft 385kts
14-Oct-16 05:53 42.246915 -106.799140 313 34076ft 386kts
14-Oct-16 05:54 42.325745 -106.894221 313 34060ft 382kts
14-Oct-16 05:55 42.404025 -106.988992 313 34033ft 383kts
14-Oct-16 05:56 42.482608 -107.084463 313 34019ft 385kts
14-Oct-16 05:57 42.561325 -107.180421 313 33908ft 383kts
14-Oct-16 05:58 42.639894 -107.276551 312 33915ft 385kts
14-Oct-16 05:59 42.718790 -107.373420 312 33918ft 385kts
14-Oct-16 06:00 42.796871 -107.469616 312 33911ft 380kts
14-Oct-16 06:01 42.874769 -107.565962 312 33859ft 381kts
14-Oct-16 06:02 42.946359 -107.654790 312 33865ft 382kts
14-Oct-16 06:03 43.020274 -107.745834 312 33862ft 381kts
14-Oct-16 06:04 43.097874 -107.842712 311 33964ft 380kts
14-Oct-16 06:05 43.168315 -107.931017 311 33879ft 382kts
14-Oct-16 06:06 43.245323 -108.027897 311 34004ft 382kts
14-Oct-16 06:07 43.322764 -108.125648 311 33997ft 380kts
14-Oct-16 06:08 43.399731 -108.223174 311 34000ft 381kts
14-Oct-16 06:09 43.475949 -108.322216 305 34001ft 382kts
14-Oct-16 06:10 43.545151 -108.432296 306 33998ft 381kts
14-Oct-16 06:11 43.615753 -108.539735 307 33820ft 383kts
14-Oct-16 06:12 43.686438 -108.647425 307 33804ft 382kts
14-Oct-16 06:13 43.750295 -108.743979 306 33811ft 382kts
14-Oct-16 06:14 43.821418 -108.853021 305 33821ft 390kts
14-Oct-16 06:15 43.892732 -108.962830 305 33802ft 387kts
14-Oct-16 06:16 43.964111 -109.073217 305 33805ft 388kts
14-Oct-16 06:17 44.035626 -109.184224 305 33757ft 387kts
14-Oct-16 06:18 44.105164 -109.292595 305 33764ft 388kts
14-Oct-16 06:19 44.169941 -109.393921 305 33761ft 387kts
14-Oct-16 06:20 44.240816 -109.505198 305 33762ft 388kts
14-Oct-16 06:21 44.311399 -109.616441 305 33758ft 384kts
14-Oct-16 06:22 44.375678 -109.717227 304 33762ft 385kts
14-Oct-16 06:23 44.444906 -109.826812 303 33889ft 374kts
14-Oct-16 06:24 44.513708 -109.936568 303 34028ft 378kts
14-Oct-16 06:25 44.582093 -110.045983 303 34016ft 376kts
14-Oct-16 06:26 44.650574 -110.156020 303 34018ft 377kts
14-Oct-16 06:26 44.707058 -110.247092 303 34019ft 376kts
14-Oct-16 06:28 44.785678 -110.374333 302 34016ft 372kts
14-Oct-16 06:28 44.841677 -110.465355 302 34017ft 373kts
14-Oct-16 06:29 44.908748 -110.574725 302 34017ft 373kts
14-Oct-16 06:30 44.970340 -110.675239 302 34008ft 374kts
14-Oct-16 06:31 45.035624 -110.781567 301 33900ft 373kts
14-Oct-16 06:32 45.101947 -110.890926 301 33930ft 377kts
14-Oct-16 06:33 45.161982 -110.990278 301 33900ft 375kts
14-Oct-16 06:34 45.229182 -111.101937 301 33783ft 374kts
14-Oct-16 06:35 45.296507 -111.214295 301 33795ft 380kts
14-Oct-16 06:36 45.364244 -111.327723 300 33790ft 380kts
14-Oct-16 06:37 45.430767 -111.439599 300 33789ft 379kts
14-Oct-16 06:38 45.498403 -111.553807 300 33789ft 379kts
14-Oct-16 06:39 45.561195 -111.660214 300 33795ft 380kts
14-Oct-16 06:40 45.626578 -111.770266 299 33785ft 379kts
14-Oct-16 06:41 45.693856 -111.885165 299 33793ft 381kts
14-Oct-16 06:42 45.761173 -112.000668 299 33729ft 382kts
14-Oct-16 06:43 45.828812 -112.117192 299 33678ft 384kts
14-Oct-16 06:44 45.891982 -112.237490 294 33678ft 377kts
14-Oct-16 06:45 45.951085 -112.361362 294 33683ft 380kts
14-Oct-16 06:46 46.010446 -112.484163 294 33678ft 379kts
14-Oct-16 06:47 46.069915 -112.607668 294 33679ft 379kts
14-Oct-16 06:48 46.117555 -112.706095 294 33679ft 379kts
14-Oct-16 06:50 46.174451 -112.824589 293 33673ft 379kts
14-Oct-16 06:51 46.233609 -112.948916 293 33681ft 380kts
14-Oct-16 06:52 46.292803 -113.073915 293 33681ft 382kts
14-Oct-16 06:53 46.352169 -113.199807 293 33678ft 381kts
14-Oct-16 06:54 46.411120 -113.325398 292 33698ft 381kts
14-Oct-16 06:55 46.469895 -113.451185 292 33698ft 381kts
14-Oct-16 06:56 46.528722 -113.577652 292 33697ft 381kts
14-Oct-16 06:57 46.581657 -113.691290 290 33719ft 381kts
14-Oct-16 06:58 46.639348 -113.815433 289 33690ft 371kts
14-Oct-16 06:59 46.696492 -113.939930 289 33700ft 373kts
14-Oct-16 07:00 46.753242 -114.064069 289 33696ft 373kts
14-Oct-16 07:01 46.811061 -114.191163 289 33705ft 378kts
14-Oct-16 07:02 46.868044 -114.316897 288 33699ft 374kts
14-Oct-16 07:03 46.924592 -114.442365 288 33695ft 374kts
14-Oct-16 07:04 46.981578 -114.569316 288 33698ft 375kts
14-Oct-16 07:05 47.034584 -114.687356 288 33706ft 375kts
14-Oct-16 07:06 47.089257 -114.809229 287 33696ft 373kts
14-Oct-16 07:07 47.136145 -114.914998 287 33693ft 372kts
14-Oct-16 07:08 47.192118 -115.041871 287 33652ft 373kts
14-Oct-16 07:09 47.247963 -115.169030 287 33649ft 373kts
14-Oct-16 07:10 47.304398 -115.298189 286 33659ft 379kts
14-Oct-16 07:11 47.360689 -115.427493 286 33649ft 377kts
14-Oct-16 07:12 47.416656 -115.556764 286 33651ft 378kts
14-Oct-16 07:13 47.462417 -115.678753 270 33659ft 346kts
14-Oct-16 07:14 47.484577 -115.812743 269 33651ft 348kts
14-Oct-16 07:15 47.505183 -115.934576 270 33654ft 348kts
14-Oct-16 07:16 47.524958 -116.051951 269 33651ft 348kts
14-Oct-16 07:17 47.547427 -116.186483 269 33652ft 348kts
14-Oct-16 07:18 47.570352 -116.324498 270 33638ft 351kts
14-Oct-16 07:19 47.593320 -116.464052 270 33642ft 351kts
14-Oct-16 07:20 47.616072 -116.603484 270 33641ft 351kts
14-Oct-16 07:21 47.637043 -116.730240 269 33645ft 350kts
14-Oct-16 07:22 47.659807 -116.870913 270 33647ft 355kts
14-Oct-16 07:23 47.682285 -117.011841 270 33641ft 353kts
14-Oct-16 07:24 47.704553 -117.152843 270 33624ft 354kts
14-Oct-16 07:25 47.726786 -117.294916 270 33613ft 356kts
14-Oct-16 07:26 47.748907 -117.437432 270 33631ft 359kts
14-Oct-16 07:27 47.771113 -117.581976 272 33630ft 370kts
14-Oct-16 07:27 47.787829 -117.689960 271 33615ft 367kts
14-Oct-16 07:29 47.813675 -117.858261 272 33605ft 373kts
14-Oct-16 07:29 47.832084 -117.980807 272 33609ft 371kts
14-Oct-16 07:30 47.853881 -118.127524 272 33606ft 371kts
14-Oct-16 07:31 47.875609 -118.275110 273 33604ft 371kts
14-Oct-16 07:32 47.897325 -118.424105 273 33615ft 377kts
14-Oct-16 07:33 47.918874 -118.573295 273 33603ft 375kts
14-Oct-16 07:34 47.937048 -118.698587 273 33612ft 376kts
14-Oct-16 07:35 47.956683 -118.834596 273 33520ft 380kts
14-Oct-16 07:36 47.975360 -118.967206 273 33513ft 379kts
14-Oct-16 07:37 47.993425 -119.096873 273 33515ft 379kts
14-Oct-16 07:38 48.010287 -119.218927 273 33514ft 379kts
14-Oct-16 07:39 48.026451 -119.337001 274 33513ft 384kts
14-Oct-16 07:40 48.041757 -119.449487 274 33516ft 382kts
14-Oct-16 07:41 48.061326 -119.594760 274 33513ft 383kts
14-Oct-16 07:42 48.080200 -119.732998 273 33517ft 382kts
14-Oct-16 07:43 48.100099 -119.882356 273 33522ft 387kts
14-Oct-16 07:44 48.117956 -120.018833 273 33512ft 385kts
14-Oct-16 07:45 48.138515 -120.174265 276 33519ft 387kts
14-Oct-16 07:46 48.165095 -120.328606 277 33507ft 389kts
14-Oct-16 07:47 48.183145 -120.431325 277 33519ft 390kts
14-Oct-16 07:48 48.183145 -120.431325 277 33519ft 390kts
14-Oct-16 07:49 48.183145 -120.431325 277 33519ft 390kts
14-Oct-16 07:50 48.183145 -120.431325 277 33519ft 390kts
14-Oct-16 07:51 48.191174 -120.477149 277 33577ft 389kts
14-Oct-16 07:53 48.212780 -120.601147 277 33512ft 388kts
14-Oct-16 07:54 48.231059 -120.705059 277 33517ft 389kts
14-Oct-16 07:55 48.251143 -120.819903 277 33535ft 389kts
14-Oct-16 07:56 48.276918 -120.970716 277 33460ft 395kts
14-Oct-16 07:57 48.303631 -121.128551 277 33448ft 394kts
14-Oct-16 07:58 48.330143 -121.286650 278 33449ft 394kts
14-Oct-16 07:59 48.355944 -121.441924 278 33451ft 395kts
14-Oct-16 08:00 48.379098 -121.582487 278 33450ft 395kts
14-Oct-16 08:01 48.398118 -121.697246 279 33455ft 395kts
14-Oct-16 08:02 48.447548 -121.816488 298 32577ft 409kts
14-Oct-16 08:03 48.503149 -121.931761 298 29878ft 415kts
14-Oct-16 08:04 48.557110 -122.044305 298 27514ft 413kts
14-Oct-16 08:05 48.606234 -122.156617 289 25637ft 392kts
14-Oct-16 08:06 48.636317 -122.254528 294 24168ft 409kts
14-Oct-16 08:07 48.678870 -122.396405 294 22178ft 390kts
14-Oct-16 08:08 48.727129 -122.537125 310 19959ft 376kts
14-Oct-16 08:09 48.792869 -122.651640 310 17852ft 364kts
14-Oct-16 08:10 48.854228 -122.757168 310 15899ft 353kts
14-Oct-16 08:11 48.917160 -122.867065 310 13875ft 343kts
14-Oct-16 08:12 48.977827 -122.973580 310 11917ft 333kts
14-Oct-16 08:13 49.036902 -123.077751 310 10007ft 323kts
14-Oct-16 08:14 49.077002 -123.154983 294 9442ft 288kts
14-Oct-16 08:15 49.096845 -123.267426 284 8427ft 264kts
14-Oct-16 08:16 49.111700 -123.354103 285 7396ft 257kts
14-Oct-16 08:17 49.129553 -123.457372 285 6093ft 252kts
14-Oct-16 08:18 49.147039 -123.558753 285 4829ft 247kts
14-Oct-16 08:19 49.151538 -123.655644 270 3656ft 243kts
14-Oct-16 08:20 49.152601 -123.753525 270 2967ft 230kts
14-Oct-16 08:21 49.155899 -123.844751 301 3008ft 199kts
14-Oct-16 08:22 49.189160 -123.829526 78 3004ft 169kts
14-Oct-16 08:23 49.196768 -123.758602 80 2999ft 168kts
14-Oct-16 08:24 49.203971 -123.688212 80 3000ft 169kts
14-Oct-16 08:25 49.211185 -123.617368 80 3000ft 169kts
14-Oct-16 08:26 49.218287 -123.547258 80 3000ft 169kts
14-Oct-16 08:26 49.221973 -123.488519 93 3000ft 169kts
14-Oct-16 08:27 49.214755 -123.421545 101 2989ft 148kts
14-Oct-16 08:28 49.207721 -123.363839 99 2132ft 138kts
14-Oct-16 08:29 49.202232 -123.314177 100 1474ft 136kts
14-Oct-16 08:30 49.195916 -123.259061 100 764ft 133kts
14-Oct-16 08:31 49.189877 -123.206089 100 83ft 132kts
14-Oct-16 08:32 49.186900 -123.179832 97 21ft 20kts
14-Oct-16 08:33 49.188100 -123.173040 311 21ft 16kts
14-Oct-16 08:34 49.189620 -123.180676 4 21ft 23kts
14-Oct-16 08:35 49.191818 -123.180306 21 21ft 0kts

Navigation Log

Ident Type
Flight plan parsing failed, navigation log unavailable